Time;durP1;ratioP1;P1;durP2;ratioP2;P2;SDS_P1;SDS_P2;PMS_P1;PMS_P2;Temp;Humidity;BMP_temperature;BMP_pressure;BME280_temperature;BME280_humidity;BME280_pressure;Samples;Min_cycle;Max_cycle;Signal;HPM_P1;HPM_P2
2020/12/11 00:02:21;;;;;;;23.08;13.93;;;3.00;99.90;;;;;;5013469;28;20099;-61
2020/12/11 00:04:47;;;;;;;24.75;14.23;;;3.10;99.90;;;;;;5012606;28;20026;-61
2020/12/11 00:07:12;;;;;;;21.95;14.02;;;3.20;99.90;;;;;;5013405;28;20030;-64
2020/12/11 00:09:38;;;;;;;22.35;14.07;;;3.30;99.90;;;;;;4994691;28;20502;-61
2020/12/11 00:12:04;;;;;;;20.40;12.68;;;3.30;99.90;;;;;;5013264;28;20029;-60
2020/12/11 00:14:29;;;;;;;25.25;14.75;;;3.30;99.90;;;;;;5013299;28;20168;-61
2020/12/11 00:16:55;;;;;;;20.83;12.85;;;3.40;99.90;;;;;;5012852;28;20034;-60
2020/12/11 00:19:21;;;;;;;29.98;13.13;;;3.30;99.90;;;;;;5012967;28;20379;-62
2020/12/11 00:21:48;;;;;;;17.40;12.07;;;3.40;99.90;;;;;;5012118;28;20022;-60
2020/12/11 00:24:14;;;;;;;20.23;12.35;;;3.30;99.90;;;;;;4995246;28;20559;-60
2020/12/11 00:26:40;;;;;;;20.70;12.63;;;3.20;99.90;;;;;;5012275;28;20030;-60
2020/12/11 00:29:06;;;;;;;20.08;12.82;;;3.20;99.90;;;;;;5012344;28;20033;-60
2020/12/11 00:31:32;;;;;;;25.08;14.43;;;3.20;99.90;;;;;;4994959;28;20104;-60
2020/12/11 00:33:57;;;;;;;20.98;13.18;;;3.20;99.90;;;;;;4994635;28;20080;-60
2020/12/11 00:36:24;;;;;;;21.33;12.85;;;3.30;99.90;;;;;;4995056;28;20063;-60
2020/12/11 00:38:51;;;;;;;23.88;13.88;;;3.30;99.90;;;;;;5011942;28;20030;-60
2020/12/11 00:41:17;;;;;;;19.20;12.15;;;3.20;99.90;;;;;;5012566;28;20026;-61
2020/12/11 00:43:43;;;;;;;22.55;12.95;;;3.30;99.90;;;;;;5012251;28;20115;-61
2020/12/11 00:46:08;;;;;;;20.45;12.98;;;3.40;99.90;;;;;;5012342;28;20074;-61
2020/12/11 00:48:34;;;;;;;21.33;13.10;;;3.20;99.90;;;;;;5012181;28;20042;-61
2020/12/11 00:51:00;;;;;;;20.02;11.98;;;3.20;99.90;;;;;;5011782;28;20514;-60
2020/12/11 00:53:25;;;;;;;22.60;13.07;;;3.10;99.90;;;;;;5012460;28;20022;-60
2020/12/11 00:55:52;;;;;;;22.15;12.95;;;3.20;99.90;;;;;;5011934;28;20030;-61
2020/12/11 00:58:18;;;;;;;19.75;12.70;;;3.30;99.90;;;;;;4994671;28;20320;-61
2020/12/11 01:00:44;;;;;;;20.20;12.05;;;3.10;99.90;;;;;;5011339;28;20119;-60
2020/12/11 01:03:09;;;;;;;16.00;11.13;;;3.20;99.90;;;;;;5012256;28;20061;-60
2020/12/11 01:05:35;;;;;;;20.40;13.23;;;3.10;99.90;;;;;;5012161;28;20113;-61
2020/12/11 01:08:05;;;;;;;18.45;12.13;;;3.10;99.90;;;;;;5011594;28;20045;-61
2020/12/11 01:10:31;;;;;;;19.48;13.48;;;3.10;99.90;;;;;;5012024;28;20026;-61
2020/12/11 01:12:57;;;;;;;19.13;12.77;;;3.20;99.90;;;;;;5011221;28;20033;-61
2020/12/11 01:15:23;;;;;;;19.50;11.88;;;3.20;99.90;;;;;;4993632;28;20029;-60
2020/12/11 01:17:49;;;;;;;17.95;12.32;;;3.10;99.90;;;;;;4993732;28;20100;-61
2020/12/11 01:20:15;;;;;;;16.90;9.68;;;3.00;99.90;;;;;;5012200;28;20044;-61
2020/12/11 01:22:41;;;;;;;18.45;12.38;;;3.30;99.90;;;;;;4993538;28;20025;-61
2020/12/11 01:25:07;;;;;;;17.85;12.48;;;3.20;99.90;;;;;;5011569;28;20364;-61
2020/12/11 01:27:32;;;;;;;17.77;12.38;;;3.20;99.90;;;;;;4994027;28;20084;-61
2020/12/11 01:29:58;;;;;;;13.43;10.00;;;3.30;99.90;;;;;;5010701;28;20034;-61
2020/12/11 01:32:26;;;;;;;17.48;10.80;;;3.40;99.90;;;;;;4994075;28;20088;-61
2020/12/11 01:34:52;;;;;;;15.73;11.73;;;3.30;99.90;;;;;;4993515;28;20359;-61
2020/12/11 01:37:18;;;;;;;14.07;10.57;;;3.30;99.90;;;;;;5010513;28;20026;-61
2020/12/11 01:39:43;;;;;;;18.27;11.60;;;3.20;99.90;;;;;;5010933;28;20029;-61
2020/12/11 01:42:11;;;;;;;14.95;10.18;;;3.30;99.90;;;;;;5011803;28;20418;-61
2020/12/11 01:44:37;;;;;;;16.42;11.32;;;3.40;99.90;;;;;;5011762;28;20037;-61
2020/12/11 01:47:02;;;;;;;16.48;11.32;;;3.40;99.90;;;;;;5010985;28;20030;-61
2020/12/11 01:49:29;;;;;;;15.82;10.75;;;3.50;99.90;;;;;;5011447;28;20466;-60
2020/12/11 01:51:54;;;;;;;14.00;10.57;;;3.50;99.90;;;;;;4993126;28;20045;-60
2020/12/11 01:54:20;;;;;;;16.95;11.40;;;3.30;99.90;;;;;;5011543;28;20371;-61
2020/12/11 01:57:00;;;;;;;16.42;10.43;;;3.30;99.90;;;;;;5010568;28;20053;-61
2020/12/11 01:59:48;;;;;;;14.85;10.70;;;3.40;99.90;;;;;;5010206;28;20037;-61
2020/12/11 02:02:14;;;;;;;17.95;12.13;;;3.40;99.90;;;;;;5011395;28;20045;-61
2020/12/11 02:04:40;;;;;;;21.90;10.43;;;3.40;99.90;;;;;;5011447;28;20479;-60
2020/12/11 02:07:06;;;;;;;17.10;10.82;;;3.40;99.90;;;;;;5011024;28;20030;-60
2020/12/11 02:09:33;;;;;;;16.17;11.13;;;3.50;99.90;;;;;;4993394;28;20030;-61
2020/12/11 02:11:59;;;;;;;14.05;9.98;;;3.40;99.90;;;;;;5010571;28;20188;-60
2020/12/11 02:14:25;;;;;;;14.18;9.70;;;3.30;99.90;;;;;;5010778;28;20037;-60
2020/12/11 02:16:59;;;;;;;15.38;10.35;;;3.20;99.90;;;;;;4992780;28;20360;-60
2020/12/11 02:19:30;;;;;;;16.00;10.38;;;3.00;99.90;;;;;;5010604;28;20065;-60
2020/12/11 02:22:05;;;;;;;14.68;10.60;;;3.00;99.90;;;;;;5010238;28;20030;-60
2020/12/11 02:24:30;;;;;;;15.93;11.55;;;3.00;99.90;;;;;;4993216;28;20121;-60
2020/12/11 02:26:58;;;;;;;14.80;10.05;;;3.10;99.90;;;;;;4992619;28;20105;-60
2020/12/11 02:29:25;;;;;;;15.57;10.98;;;3.20;99.90;;;;;;4993334;28;20029;-61
2020/12/11 02:31:51;;;;;;;16.08;11.05;;;3.10;99.90;;;;;;5009118;28;20494;-62
2020/12/11 02:34:18;;;;;;;14.82;10.43;;;3.20;99.90;;;;;;4993474;28;20034;-61
2020/12/11 02:36:43;;;;;;;16.17;10.45;;;3.20;99.90;;;;;;5010474;28;20049;-61
2020/12/11 02:39:09;;;;;;;16.58;10.90;;;3.30;99.90;;;;;;5010700;28;20026;-60
2020/12/11 02:41:35;;;;;;;15.38;10.38;;;3.20;99.90;;;;;;4993099;28;20029;-60
2020/12/11 02:44:01;;;;;;;16.02;11.20;;;3.20;99.90;;;;;;4992647;28;20117;-60
2020/12/11 02:46:27;;;;;;;15.68;10.07;;;3.20;99.90;;;;;;4992855;28;20026;-60
2020/12/11 02:48:53;;;;;;;17.10;11.25;;;3.10;99.90;;;;;;5010117;28;20368;-60
2020/12/11 02:51:19;;;;;;;18.60;11.80;;;3.10;99.90;;;;;;5010572;28;20030;-60
2020/12/11 02:53:49;;;;;;;16.85;12.35;;;3.00;99.90;;;;;;5010196;28;20026;-61
2020/12/11 02:56:20;;;;;;;18.13;12.10;;;3.00;99.90;;;;;;4992786;28;20034;-60
2020/12/11 02:58:46;;;;;;;16.55;11.80;;;3.00;99.90;;;;;;4993081;28;20476;-60
2020/12/11 03:01:12;;;;;;;17.55;11.45;;;3.10;99.90;;;;;;5010486;28;20065;-60
2020/12/11 03:03:38;;;;;;;21.83;13.23;;;3.00;99.90;;;;;;4992987;28;20068;-61
2020/12/11 03:06:03;;;;;;;19.35;12.82;;;3.10;99.90;;;;;;5010075;28;20068;-61
2020/12/11 03:08:29;;;;;;;22.40;13.65;;;3.00;99.90;;;;;;5010709;28;20025;-61
2020/12/11 03:10:55;;;;;;;18.25;12.10;;;3.00;99.90;;;;;;5010262;28;20433;-61
2020/12/11 03:13:21;;;;;;;21.25;13.45;;;2.90;99.90;;;;;;5010955;28;20428;-61
2020/12/11 03:15:46;;;;;;;22.38;13.77;;;3.00;99.90;;;;;;4992367;28;20080;-61
2020/12/11 03:18:12;;;;;;;17.98;12.40;;;2.80;99.90;;;;;;5010432;28;20022;-61
2020/12/11 03:20:38;;;;;;;18.90;12.13;;;2.90;99.90;;;;;;4992917;28;20386;-61
2020/12/11 03:23:03;;;;;;;21.83;13.48;;;2.90;99.90;;;;;;5009598;28;20022;-61
2020/12/11 03:25:29;;;;;;;20.42;12.48;;;3.00;99.90;;;;;;5010060;28;20109;-61
2020/12/11 03:27:54;;;;;;;23.15;13.10;;;2.90;99.90;;;;;;4991974;28;20191;-61
2020/12/11 03:30:20;;;;;;;22.92;13.95;;;2.80;99.90;;;;;;5010340;28;20038;-60
2020/12/11 03:32:46;;;;;;;19.98;12.68;;;2.90;99.90;;;;;;5010170;28;20116;-60
2020/12/11 03:35:12;;;;;;;21.25;14.52;;;2.90;99.90;;;;;;5010539;28;20426;-60
2020/12/11 03:37:37;;;;;;;22.73;13.57;;;3.10;99.90;;;;;;5011380;28;20068;-61
2020/12/11 03:40:04;;;;;;;18.10;12.00;;;2.90;99.90;;;;;;4995733;28;20505;-61
2020/12/11 03:42:30;;;;;;;23.30;13.52;;;3.00;99.90;;;;;;4996174;28;20037;-61
2020/12/11 03:44:56;;;;;;;20.85;12.25;;;2.90;99.90;;;;;;4995250;28;20022;-61
2020/12/11 03:47:21;;;;;;;20.65;13.40;;;2.80;99.90;;;;;;5013578;28;20034;-61
2020/12/11 03:49:47;;;;;;;22.75;12.48;;;2.80;99.90;;;;;;4995691;28;20045;-62
2020/12/11 03:52:13;;;;;;;18.33;11.48;;;2.90;99.90;;;;;;5013555;28;20030;-61
2020/12/11 03:54:39;;;;;;;20.52;12.55;;;2.90;99.90;;;;;;5013473;28;20053;-62
2020/12/11 03:57:05;;;;;;;21.98;12.55;;;2.90;99.90;;;;;;5012916;28;20100;-62
2020/12/11 03:59:30;;;;;;;19.15;11.73;;;2.80;99.90;;;;;;5013499;28;20029;-61
2020/12/11 04:01:56;;;;;;;20.45;12.43;;;2.80;99.90;;;;;;5009213;28;20072;-62
2020/12/11 04:04:21;;;;;;;25.73;13.35;;;2.70;99.90;;;;;;5013569;28;20037;-60
2020/12/11 04:06:47;;;;;;;20.90;13.27;;;2.80;99.90;;;;;;5012136;28;20510;-61
2020/12/11 04:09:13;;;;;;;18.90;12.13;;;2.70;99.90;;;;;;5012927;28;20026;-60
2020/12/11 04:11:38;;;;;;;18.73;11.90;;;2.70;99.90;;;;;;5013285;28;20080;-59
2020/12/11 04:14:04;;;;;;;19.25;12.27;;;2.60;99.90;;;;;;5011328;28;20479;-60
2020/12/11 04:16:33;;;;;;;22.35;13.10;;;2.70;99.90;;;;;;5013035;28;20022;-60
2020/12/11 04:19:00;;;;;;;20.83;12.75;;;2.60;99.90;;;;;;5011262;28;20120;-60
2020/12/11 04:21:25;;;;;;;20.50;10.90;;;2.70;99.90;;;;;;5013256;28;20034;-60
2020/12/11 04:23:51;;;;;;;21.65;12.55;;;2.70;99.90;;;;;;5012200;28;20156;-61
2020/12/11 04:26:17;;;;;;;20.52;12.68;;;2.60;99.90;;;;;;5012653;28;20455;-60
2020/12/11 04:28:42;;;;;;;21.25;12.15;;;2.50;99.90;;;;;;5011530;28;20026;-61
2020/12/11 04:31:08;;;;;;;22.23;13.27;;;2.50;99.90;;;;;;5012070;28;20034;-60
2020/12/11 04:33:34;;;;;;;19.55;12.60;;;2.60;99.90;;;;;;5011425;28;20033;-60
2020/12/11 04:36:00;;;;;;;19.40;11.55;;;2.50;99.90;;;;;;5012190;28;20026;-60
2020/12/11 04:38:25;;;;;;;20.95;13.40;;;2.50;99.90;;;;;;5012986;28;20478;-60
2020/12/11 04:40:59;;;;;;;20.08;11.68;;;2.50;99.90;;;;;;5010892;28;20124;-61
2020/12/11 04:43:25;;;;;;;22.52;13.57;;;2.50;99.90;;;;;;5012867;28;20061;-60
2020/12/11 04:45:51;;;;;;;22.90;13.20;;;2.50;99.90;;;;;;5012569;28;20103;-64
2020/12/11 04:48:17;;;;;;;20.45;11.70;;;2.50;99.90;;;;;;5010903;28;20033;-60
2020/12/11 04:50:44;;;;;;;21.35;13.13;;;2.50;99.90;;;;;;5010291;28;20137;-61
2020/12/11 04:53:14;;;;;;;22.00;12.65;;;2.40;99.90;;;;;;5011483;28;20068;-62
2020/12/11 04:55:43;;;;;;;24.45;12.60;;;2.50;99.90;;;;;;5011153;28;20116;-60
2020/12/11 04:58:14;;;;;;;20.67;12.35;;;2.50;99.90;;;;;;5010361;28;20025;-61
2020/12/11 05:00:41;;;;;;;19.80;12.77;;;2.60;99.90;;;;;;5012299;28;20046;-60
2020/12/11 05:03:09;;;;;;;17.73;12.20;;;2.60;99.90;;;;;;5011373;28;20373;-61
2020/12/11 05:05:35;;;;;;;23.83;12.63;;;2.60;99.90;;;;;;4995015;28;20120;-60
2020/12/11 05:08:15;;;;;;;18.63;11.45;;;2.60;99.90;;;;;;5011413;28;20122;-60
2020/12/11 05:10:41;;;;;;;22.02;11.73;;;2.50;99.90;;;;;;4978163;28;20087;-61
2020/12/11 05:13:17;;;;;;;21.42;12.98;;;2.60;99.90;;;;;;5011523;28;20034;-61
2020/12/11 05:15:43;;;;;;;21.40;14.15;;;2.50;99.90;;;;;;4994437;28;20116;-61
2020/12/11 05:18:17;;;;;;;23.58;13.40;;;2.50;99.90;;;;;;5011560;28;20101;-61
2020/12/11 05:20:43;;;;;;;25.63;13.48;;;2.60;99.90;;;;;;5012277;28;20139;-62
2020/12/11 05:23:09;;;;;;;24.40;14.20;;;2.60;99.90;;;;;;5011527;28;20378;-60
2020/12/11 05:25:34;;;;;;;28.50;14.50;;;2.40;99.90;;;;;;5011900;28;20034;-61
2020/12/11 05:28:00;;;;;;;22.88;13.23;;;2.40;99.90;;;;;;5011157;28;20501;-61
2020/12/11 05:30:26;;;;;;;21.48;13.82;;;2.40;99.90;;;;;;5011468;28;20037;-61
2020/12/11 05:32:54;;;;;;;24.52;14.13;;;2.50;99.90;;;;;;5011816;28;20128;-61
2020/12/11 05:35:20;;;;;;;25.73;14.43;;;2.50;99.90;;;;;;5011927;28;20095;-60
2020/12/11 05:38:06;;;;;;;23.70;13.85;;;2.50;99.90;;;;;;4993952;28;20431;-61
2020/12/11 05:40:40;;;;;;;26.73;14.05;;;2.60;99.90;;;;;;5011638;28;20037;-61
2020/12/11 05:43:08;;;;;;;25.70;14.13;;;2.60;99.90;;;;;;4993419;28;20316;-61
2020/12/11 05:45:38;;;;;;;27.05;13.98;;;2.50;99.90;;;;;;5011603;28;20018;-61
2020/12/11 05:48:06;;;;;;;20.83;12.80;;;2.60;99.90;;;;;;4993455;28;20031;-60
2020/12/11 05:50:33;;;;;;;22.48;13.98;;;2.60;99.90;;;;;;5011221;28;20425;-62
2020/12/11 05:53:00;;;;;;;26.42;14.50;;;2.50;99.90;;;;;;5010014;28;20034;-64
2020/12/11 05:55:25;;;;;;;21.83;14.35;;;2.50;99.90;;;;;;5010753;28;20105;-65
2020/12/11 05:57:57;;;;;;;22.85;12.57;;;2.40;99.90;;;;;;4992983;28;20045;-62
2020/12/11 06:00:23;;;;;;;49.00;20.77;;;2.50;99.90;;;;;;4994209;28;20125;-70
2020/12/11 06:02:50;;;;;;;27.33;16.08;;;4.10;99.90;;;;;;5009612;28;20049;-62
2020/12/11 06:05:17;;;;;;;20.80;14.70;;;3.90;99.90;;;;;;5009051;28;20457;-61
2020/12/11 06:07:47;;;;;;;24.40;14.25;;;3.20;99.90;;;;;;5017723;28;20331;-61
2020/12/11 06:10:15;;;;;;;23.23;14.32;;;2.80;99.90;;;;;;5019545;28;20033;-61
2020/12/11 06:12:41;;;;;;;22.90;13.85;;;2.70;99.90;;;;;;5017823;28;20033;-62
2020/12/11 06:15:22;;;;;;;21.35;13.40;;;2.90;99.90;;;;;;5024987;28;20026;-61
2020/12/11 06:18:18;;;;;;;21.23;13.13;;;2.80;99.90;;;;;;5025466;28;20426;-62
2020/12/11 06:20:47;;;;;;;24.98;13.43;;;2.80;99.90;;;;;;5015548;28;20479;-62
2020/12/11 06:23:30;;;;;;;27.65;14.98;;;2.70;99.90;;;;;;5028076;28;20485;-62
2020/12/11 06:26:03;;;;;;;22.73;15.13;;;2.60;99.90;;;;;;5027666;28;20120;-61
2020/12/11 06:28:36;;;;;;;24.05;14.38;;;2.60;99.90;;;;;;5014429;28;20033;-62
2020/12/11 06:31:03;;;;;;;22.30;13.88;;;2.70;99.90;;;;;;5026351;28;20402;-61
2020/12/11 06:33:33;;;;;;;23.88;14.60;;;2.70;99.90;;;;;;5029815;28;20044;-61
2020/12/11 06:36:00;;;;;;;27.65;15.38;;;2.60;99.90;;;;;;5020528;28;20025;-62
2020/12/11 06:38:52;;;;;;;28.33;15.73;;;2.50;99.90;;;;;;5019007;28;20029;-62
2020/12/11 06:41:27;;;;;;;24.58;15.23;;;2.60;99.90;;;;;;5021009;28;20039;-61
2020/12/11 06:43:56;;;;;;;26.42;14.45;;;2.70;99.90;;;;;;5029754;28;20026;-63
2020/12/11 06:46:24;;;;;;;21.48;14.85;;;2.80;99.90;;;;;;5029207;28;20030;-62
2020/12/11 06:49:06;;;;;;;26.23;15.55;;;2.80;99.90;;;;;;5022210;28;20022;-62
2020/12/11 06:51:53;;;;;;;28.30;15.00;;;2.80;99.90;;;;;;5029925;28;20025;-61
2020/12/11 06:54:22;;;;;;;27.13;15.43;;;2.80;99.90;;;;;;5021646;28;20124;-62
2020/12/11 06:56:56;;;;;;;23.35;14.43;;;2.80;99.90;;;;;;5028576;28;20130;-62
2020/12/11 06:59:25;;;;;;;25.67;15.57;;;2.80;99.90;;;;;;5029253;28;20048;-61
2020/12/11 07:02:04;;;;;;;22.85;14.60;;;2.80;99.90;;;;;;5026416;28;20130;-65
2020/12/11 07:04:40;;;;;;;23.77;13.98;;;2.80;99.90;;;;;;5018518;28;20119;-61
2020/12/11 07:07:06;;;;;;;28.33;15.65;;;2.80;99.90;;;;;;5025031;28;20021;-61
2020/12/11 07:09:39;;;;;;;26.67;15.95;;;2.90;99.90;;;;;;5011708;28;20055;-61
2020/12/11 07:12:05;;;;;;;26.75;14.95;;;2.90;99.90;;;;;;5029904;28;20495;-63
2020/12/11 07:14:30;;;;;;;28.30;16.45;;;2.70;99.90;;;;;;5030801;28;20022;-61
2020/12/11 07:16:56;;;;;;;24.73;15.32;;;2.80;99.90;;;;;;4996636;28;20041;-61
2020/12/11 07:19:23;;;;;;;29.17;16.75;;;3.00;99.90;;;;;;5032335;28;20052;-62
2020/12/11 07:21:49;;;;;;;25.48;16.08;;;2.90;99.90;;;;;;5033795;28;20041;-61
2020/12/11 07:24:15;;;;;;;26.17;15.75;;;2.90;99.90;;;;;;5033061;28;20036;-63
2020/12/11 07:26:41;;;;;;;29.10;16.52;;;2.90;99.90;;;;;;5025961;28;20030;-61
2020/12/11 07:29:17;;;;;;;23.98;15.38;;;2.90;99.90;;;;;;5011086;28;20348;-63
2020/12/11 07:31:44;;;;;;;24.17;15.13;;;2.90;99.90;;;;;;5004664;28;20033;-62
2020/12/11 07:34:21;;;;;;;26.02;16.55;;;3.00;99.90;;;;;;5019112;28;20049;-62
2020/12/11 07:36:54;;;;;;;29.42;16.65;;;3.10;99.90;;;;;;5004370;28;20085;-64
2020/12/11 07:39:21;;;;;;;24.50;15.57;;;3.10;99.90;;;;;;5002460;28;20112;-64
2020/12/11 07:41:47;;;;;;;25.98;16.67;;;3.10;99.90;;;;;;5023400;28;20049;-64
2020/12/11 07:44:29;;;;;;;29.45;15.98;;;3.00;99.90;;;;;;5004867;28;20183;-70
2020/12/11 07:46:57;;;;;;;24.80;14.98;;;3.30;99.90;;;;;;5015253;28;20110;-63
2020/12/11 07:49:38;;;;;;;26.40;14.70;;;4.80;99.90;;;;;;4997059;28;20072;-63
2020/12/11 07:52:05;;;;;;;26.10;16.13;;;3.80;99.90;;;;;;5019630;28;20052;-63
2020/12/11 07:54:38;;;;;;;28.45;16.92;;;3.20;99.90;;;;;;5022290;28;20185;-61
2020/12/11 07:57:08;;;;;;;27.30;15.73;;;3.10;99.90;;;;;;5028516;28;20022;-62
2020/12/11 07:59:33;;;;;;;25.20;15.50;;;3.10;99.90;;;;;;5031427;28;20040;-62
2020/12/11 08:01:59;;;;;;;27.52;17.20;;;3.10;99.90;;;;;;4985539;28;20057;-64
2020/12/11 08:04:25;;;;;;;45.72;18.55;;;3.00;99.90;;;;;;4991932;28;20058;-62
2020/12/11 08:07:00;;;;;;;27.42;15.77;;;3.00;99.90;;;;;;4994907;28;20353;-62
2020/12/11 08:09:34;;;;;;;26.73;16.42;;;3.00;99.90;;;;;;5010780;28;20168;-62
2020/12/11 08:12:15;;;;;;;27.15;17.33;;;3.00;99.90;;;;;;4994190;28;20062;-62
2020/12/11 08:14:41;;;;;;;33.40;16.83;;;3.10;99.90;;;;;;5011773;28;20022;-61
2020/12/11 08:17:12;;;;;;;30.63;16.83;;;3.20;99.90;;;;;;5012118;28;20030;-61
2020/12/11 08:19:42;;;;;;;36.80;19.67;;;3.10;99.90;;;;;;4994540;28;20041;-62
2020/12/11 08:22:16;;;;;;;25.25;16.27;;;3.10;99.90;;;;;;5011815;28;20036;-61
2020/12/11 08:24:43;;;;;;;27.35;16.75;;;3.20;99.90;;;;;;4993726;28;20494;-64
2020/12/11 08:27:21;;;;;;;28.83;17.67;;;3.10;99.90;;;;;;4993228;28;20022;-61
2020/12/11 08:30:11;;;;;;;26.60;15.75;;;3.10;99.90;;;;;;5011002;28;20036;-61
2020/12/11 08:32:37;;;;;;;25.30;16.58;;;3.10;99.90;;;;;;4995090;28;20440;-62
2020/12/11 08:35:23;;;;;;;29.55;17.02;;;3.20;99.90;;;;;;4988882;28;20026;-63
2020/12/11 08:37:56;;;;;;;25.50;15.93;;;3.20;99.90;;;;;;4995268;28;20471;-61
2020/12/11 08:40:23;;;;;;;31.25;15.80;;;3.40;99.90;;;;;;4991241;28;20034;-61
2020/12/11 08:46:00;;;;;;;27.40;17.05;;;3.20;99.90;;;;;;4983601;28;20110;-61
2020/12/11 08:53:24;;;;;;;23.60;15.30;;;3.40;99.90;;;;;;5009317;28;20095;-62
2020/12/11 08:55:50;;;;;;;26.05;16.77;;;3.40;99.90;;;;;;5011688;28;20363;-62
2020/12/11 08:58:15;;;;;;;23.73;14.82;;;3.40;99.90;;;;;;5008813;28;20487;-61
2020/12/11 09:00:41;;;;;;;26.38;16.40;;;3.30;99.90;;;;;;4992105;28;20049;-61
2020/12/11 09:03:07;;;;;;;24.02;15.20;;;3.70;99.90;;;;;;4991570;28;20036;-65
2020/12/11 09:05:33;;;;;;;22.90;14.63;;;3.80;99.90;;;;;;5009343;28;20056;-62
2020/12/11 09:08:00;;;;;;;25.65;16.63;;;3.70;99.90;;;;;;5002176;28;20022;-62
2020/12/11 09:10:26;;;;;;;26.40;15.80;;;3.70;99.90;;;;;;4989408;28;20121;-61
2020/12/11 09:12:53;;;;;;;24.77;15.15;;;3.90;99.90;;;;;;4991973;28;20486;-60
2020/12/11 09:15:21;;;;;;;24.63;14.27;;;3.80;99.90;;;;;;4996186;28;20116;-61
2020/12/11 09:17:47;;;;;;;24.67;14.90;;;4.00;99.90;;;;;;4993383;28;20137;-62
2020/12/11 09:20:14;;;;;;;23.58;15.10;;;4.20;99.90;;;;;;5010772;28;20037;-61
2020/12/11 09:22:39;;;;;;;26.10;15.63;;;4.60;99.90;;;;;;5011041;28;20367;-62
2020/12/11 09:25:07;;;;;;;22.58;14.35;;;5.50;99.90;;;;;;5010893;28;20499;-63
2020/12/11 09:27:39;;;;;;;25.67;14.82;;;5.70;99.60;;;;;;5011457;28;20026;-62
2020/12/11 09:30:27;;;;;;;24.83;15.93;;;5.10;99.90;;;;;;4993887;28;20448;-63
2020/12/11 09:35:26;;;;;;;23.38;15.35;;;5.10;99.90;;;;;;5010049;28;20034;-61
2020/12/11 09:37:56;;;;;;;24.27;15.88;;;4.80;99.90;;;;;;5011145;28;20036;-64
2020/12/11 09:43:26;;;;;;;24.40;15.82;;;4.60;99.90;;;;;;5010394;28;20037;-63
2020/12/11 09:48:24;;;;;;;24.23;14.60;;;4.00;99.90;;;;;;5009530;28;20120;-63
2020/12/11 09:51:03;;;;;;;25.75;15.20;;;4.00;99.90;;;;;;5010319;28;20033;-61
2020/12/11 09:53:55;;;;;;;25.00;15.18;;;4.00;99.90;;;;;;5009204;28;20120;-63
2020/12/11 09:56:29;;;;;;;20.98;14.38;;;4.10;99.90;;;;;;5009336;28;20033;-61
2020/12/11 09:59:03;;;;;;;24.85;14.75;;;4.10;99.90;;;;;;4976420;28;20034;-62
2020/12/11 10:04:14;;;;;;;27.88;15.75;;;4.20;99.90;;;;;;5020319;28;20068;-62
2020/12/11 10:06:40;;;;;;;25.27;14.70;;;4.20;99.90;;;;;;5018462;28;20412;-64
2020/12/11 10:09:05;;;;;;;29.88;15.52;;;4.10;99.90;;;;;;5000239;28;20532;-61
2020/12/11 10:11:31;;;;;;;25.20;16.20;;;4.40;99.90;;;;;;5007052;28;20037;-61
2020/12/11 10:16:52;;;;;;;25.48;15.77;;;4.10;99.90;;;;;;4991575;28;20137;-62
2020/12/11 10:19:20;;;;;;;22.55;13.18;;;4.20;99.90;;;;;;5010748;28;20390;-61
2020/12/11 10:21:50;;;;;;;24.83;14.98;;;4.20;99.90;;;;;;5028366;28;20034;-61
2020/12/11 10:24:16;;;;;;;21.60;13.73;;;4.20;99.90;;;;;;5028492;28;20061;-61
2020/12/11 10:26:43;;;;;;;20.88;13.45;;;4.10;99.90;;;;;;5028629;28;20078;-61
2020/12/11 10:29:09;;;;;;;25.25;15.75;;;4.10;99.90;;;;;;5011021;28;20060;-63
2020/12/11 10:31:35;;;;;;;25.65;16.17;;;4.10;99.90;;;;;;5029076;28;20037;-61
2020/12/11 10:34:01;;;;;;;24.65;14.98;;;4.20;99.90;;;;;;5004950;28;20364;-61
2020/12/11 10:36:34;;;;;;;26.60;16.98;;;4.20;99.90;;;;;;4999899;28;20068;-62
2020/12/11 10:39:00;;;;;;;27.65;15.15;;;4.20;99.90;;;;;;5019175;28;20026;-66
2020/12/11 10:41:26;;;;;;;31.92;16.50;;;4.30;99.90;;;;;;4999066;28;20029;-62
2020/12/11 10:43:52;;;;;;;28.85;17.33;;;4.30;99.90;;;;;;5017459;28;20026;-64
2020/12/11 10:46:19;;;;;;;25.08;15.30;;;4.40;99.90;;;;;;5016215;28;20026;-61
2020/12/11 10:48:45;;;;;;;26.73;16.33;;;4.30;99.90;;;;;;5012783;28;20034;-62
2020/12/11 10:51:15;;;;;;;28.67;16.23;;;4.20;99.90;;;;;;5011997;28;20042;-64
2020/12/11 10:53:43;;;;;;;26.20;16.08;;;4.10;99.90;;;;;;4995049;28;20091;-62
2020/12/11 10:56:10;;;;;;;25.83;15.63;;;4.20;99.90;;;;;;4994496;28;20030;-61
2020/12/11 10:58:36;;;;;;;31.15;18.58;;;4.30;99.90;;;;;;4995517;28;20034;-62
2020/12/11 11:01:04;;;;;;;28.60;16.00;;;4.20;99.90;;;;;;4991157;28;627732;-61
2020/12/11 11:03:30;;;;;;;28.42;15.95;;;4.30;99.90;;;;;;5013648;28;20041;-62
2020/12/11 11:06:00;;;;;;;25.73;15.30;;;4.20;99.90;;;;;;5014469;28;20030;-61
2020/12/11 11:08:34;;;;;;;24.63;16.50;;;4.20;99.90;;;;;;4995630;28;20026;-62
2020/12/11 11:11:00;;;;;;;28.77;16.75;;;4.00;99.90;;;;;;5014181;28;20030;-61
2020/12/11 11:13:35;;;;;;;25.58;16.23;;;4.10;99.90;;;;;;4995745;28;20473;-61
2020/12/11 11:16:02;;;;;;;28.20;16.30;;;4.00;99.90;;;;;;5013794;28;20065;-62
2020/12/11 11:23:36;;;;;;;24.77;16.75;;;4.10;99.90;;;;;;5013295;28;20550;-62
2020/12/11 11:26:11;;;;;;;36.25;17.38;;;4.10;99.90;;;;;;4995887;28;20026;-61
2020/12/11 11:28:36;;;;;;;26.27;15.77;;;4.20;99.90;;;;;;4996003;28;20121;-61
2020/12/11 11:31:02;;;;;;;28.10;17.00;;;4.20;99.90;;;;;;4995666;28;20064;-61
2020/12/11 11:33:28;;;;;;;29.52;16.20;;;4.20;99.90;;;;;;4995304;28;20034;-61
2020/12/11 11:35:53;;;;;;;28.80;16.33;;;4.10;99.90;;;;;;4995904;28;20037;-62
2020/12/11 11:38:19;;;;;;;23.75;15.68;;;4.00;99.90;;;;;;4995029;28;20026;-61
2020/12/11 11:40:47;;;;;;;31.00;17.88;;;4.00;99.90;;;;;;4995619;28;20091;-62
2020/12/11 11:43:15;;;;;;;30.67;16.98;;;4.10;99.90;;;;;;5012788;28;20499;-63
2020/12/11 11:45:41;;;;;;;26.73;15.82;;;4.20;99.90;;;;;;5013288;28;20090;-61
2020/12/11 11:48:10;;;;;;;28.25;17.17;;;4.30;99.90;;;;;;4995244;28;20032;-62
2020/12/11 11:53:15;;;;;;;31.20;16.27;;;4.20;99.90;;;;;;4996295;28;20483;-66
2020/12/11 11:55:42;;;;;;;27.38;15.95;;;4.10;99.90;;;;;;4995590;28;20048;-63
2020/12/11 11:58:09;;;;;;;33.63;18.40;;;4.20;99.90;;;;;;4994730;28;20030;-63
2020/12/11 12:00:34;;;;;;;26.67;15.77;;;4.40;99.90;;;;;;4994265;28;20211;-62
2020/12/11 12:03:00;;;;;;;23.98;15.43;;;4.40;99.90;;;;;;5012791;28;20070;-62
2020/12/11 12:05:26;;;;;;;28.02;15.85;;;4.50;99.90;;;;;;5012304;28;20038;-62
2020/12/11 12:07:51;;;;;;;24.38;14.75;;;4.40;99.90;;;;;;4995058;28;20452;-62
2020/12/11 12:10:17;;;;;;;25.98;15.32;;;4.50;99.90;;;;;;4994360;28;20120;-63
2020/12/11 12:12:43;;;;;;;25.60;18.02;;;4.50;99.90;;;;;;5012828;28;20056;-61
2020/12/11 12:15:15;;;;;;;25.35;14.93;;;4.50;99.90;;;;;;4995154;28;20038;-62
2020/12/11 12:18:05;;;;;;;24.85;15.35;;;4.40;99.90;;;;;;5012846;28;20018;-61
2020/12/11 12:20:45;;;;;;;27.20;15.45;;;4.50;99.90;;;;;;5011163;28;20078;-62
2020/12/11 12:31:07;;;;;;;22.58;13.80;;;4.50;99.90;;;;;;5011826;28;20046;-62
2020/12/11 12:44:06;;;;;;;27.88;15.48;;;5.10;99.90;;;;;;5011901;28;20447;-61
2020/12/11 12:46:31;;;;;;;30.88;17.45;;;5.30;99.90;;;;;;4993506;28;20132;-62
2020/12/11 12:48:57;;;;;;;32.40;15.70;;;5.80;99.90;;;;;;4994335;28;20456;-62
2020/12/11 12:51:23;;;;;;;23.17;13.43;;;6.20;99.00;;;;;;5011867;28;20418;-62
2020/12/11 12:53:49;;;;;;;24.45;13.98;;;6.20;98.60;;;;;;4994558;28;20057;-62
2020/12/11 12:59:45;;;;;;;21.70;13.77;;;6.30;98.60;;;;;;5012005;28;20100;-61
2020/12/11 13:04:18;;;;;;;24.63;14.77;;;5.40;99.70;;;;;;5011292;28;20095;-61
2020/12/11 13:06:45;;;;;;;18.85;12.73;;;5.30;99.90;;;;;;5011531;28;20025;-62
2020/12/11 13:09:11;;;;;;;20.35;12.50;;;5.40;99.90;;;;;;4993263;28;20481;-62
2020/12/11 13:11:37;;;;;;;24.73;14.15;;;5.30;99.90;;;;;;4992809;28;20473;-62
2020/12/11 13:14:03;;;;;;;23.08;12.55;;;5.30;99.90;;;;;;5012066;28;20061;-62
2020/12/11 13:16:28;;;;;;;22.45;13.95;;;5.10;99.90;;;;;;5011156;28;20137;-62
2020/12/11 13:18:54;;;;;;;21.00;13.20;;;5.10;99.90;;;;;;5011362;28;20066;-62
2020/12/11 13:21:25;;;;;;;20.45;12.48;;;5.10;99.90;;;;;;5010850;28;20506;-62
2020/12/11 13:26:44;;;;;;;21.02;13.65;;;5.10;99.90;;;;;;5010903;28;20049;-63
2020/12/11 13:29:09;;;;;;;25.27;16.20;;;5.10;99.90;;;;;;4993483;28;20037;-62
2020/12/11 13:31:35;;;;;;;20.83;14.00;;;5.10;99.90;;;;;;5010695;28;20046;-62
2020/12/11 13:34:01;;;;;;;18.13;12.30;;;5.10;99.90;;;;;;4993746;28;20037;-63
2020/12/11 13:36:27;;;;;;;20.80;12.85;;;4.90;99.90;;;;;;4992726;28;20025;-64
2020/12/11 13:38:52;;;;;;;24.48;13.13;;;5.00;99.90;;;;;;4993587;28;20356;-63